createdAt,value
2016-03-11T00:00:08.912Z,1027.76
2016-03-11T00:01:08.930Z,1027.82
2016-03-11T00:02:08.933Z,1027.78
2016-03-11T00:03:36.842Z,1027.8
2016-03-11T00:04:24.125Z,1027.82
2016-03-11T00:05:43.348Z,1027.81
2016-03-11T00:06:30.412Z,1027.84
2016-03-11T00:07:49.836Z,1027.88
2016-03-11T00:08:30.449Z,1027.87
2016-03-11T00:09:24.202Z,1027.88
2016-03-11T00:10:45.689Z,1027.85
2016-03-11T00:11:39.379Z,1027.77
2016-03-11T00:12:58.617Z,1027.82
2016-03-11T00:13:39.416Z,1027.81
2016-03-11T00:15:05.091Z,1027.81
2016-03-11T00:15:48.953Z,1027.86
2016-03-11T00:17:08.174Z,1027.86
2016-03-11T00:17:58.317Z,1027.87
2016-03-11T00:18:58.335Z,1027.87
2016-03-11T00:19:58.338Z,1027.91
2016-03-11T00:20:58.372Z,1027.93
2016-03-11T00:21:58.375Z,1027.92
2016-03-11T00:23:11.158Z,1027.91
2016-03-11T00:23:58.396Z,1027.91
2016-03-11T00:24:58.414Z,1027.93
2016-03-11T00:26:04.698Z,1027.96
2016-03-11T00:26:58.654Z,1027.95
2016-03-11T00:27:58.454Z,1027.92
2016-03-11T00:29:11.206Z,1027.92
2016-03-11T00:29:58.490Z,1027.88
2016-03-11T00:30:58.493Z,1027.91
2016-03-11T00:31:58.511Z,1027.92
2016-03-11T00:32:58.529Z,1027.86
2016-03-11T00:33:58.548Z,1027.92
2016-03-11T00:34:58.550Z,1027.88
2016-03-11T00:35:58.585Z,1027.95
2016-03-11T00:36:58.588Z,1027.89
2016-03-11T00:37:58.606Z,1027.89
2016-03-11T00:38:58.624Z,1027.87
2016-03-11T00:39:58.626Z,1027.9
2016-03-11T00:41:04.911Z,1027.97
2016-03-11T00:41:58.664Z,1027.93
2016-03-11T00:43:17.869Z,1027.93
2016-03-11T00:43:58.700Z,1027.95
2016-03-11T00:44:58.703Z,1027.9
2016-03-11T00:46:11.455Z,1027.93
2016-03-11T00:46:58.723Z,1027.9
2016-03-11T00:47:58.742Z,1027.95
2016-03-11T00:48:58.760Z,1027.92
2016-03-11T00:49:58.778Z,1027.9
2016-03-11T00:50:58.797Z,1027.93
2016-03-11T00:51:58.800Z,1027.92
2016-03-11T00:52:58.819Z,1027.96
2016-03-11T00:53:58.837Z,1027.92
2016-03-11T00:55:11.605Z,1027.92
2016-03-11T00:56:05.123Z,1027.94
2016-03-11T00:56:58.876Z,1027.94
2016-03-11T00:57:58.894Z,1027.94
2016-03-11T00:58:58.913Z,1027.91
2016-03-11T00:59:58.931Z,1027.95
2016-03-11T01:00:58.949Z,1027.93
2016-03-11T01:01:58.952Z,1027.96
2016-03-11T01:02:58.955Z,1027.94
2016-03-11T01:03:59.614Z,1027.95
2016-03-11T01:04:58.991Z,1028
2016-03-11T01:05:59.010Z,1027.97
2016-03-11T01:06:59.012Z,1028.05
2016-03-11T01:07:59.046Z,1028.01
2016-03-11T01:08:59.049Z,1028.03
2016-03-11T01:09:59.067Z,1028.06
2016-03-11T01:10:59.085Z,1028.06
2016-03-11T01:11:59.088Z,1028.08
2016-03-11T01:12:59.106Z,1028.08
2016-03-11T01:13:59.718Z,1028.07
2016-03-11T01:14:59.143Z,1028.02
2016-03-11T01:15:59.146Z,1028.07
2016-03-11T01:16:59.179Z,1028.06
2016-03-11T01:17:59.167Z,1028.09
2016-03-11T01:19:11.935Z,1028.07
2016-03-11T01:19:59.204Z,1028.07
2016-03-11T01:20:59.223Z,1028.05
2016-03-11T01:22:11.975Z,1028.07
2016-03-11T01:22:59.242Z,1028.06
2016-03-11T01:23:59.261Z,1028.06
2016-03-11T01:24:59.280Z,1028.11
2016-03-11T01:26:24.970Z,1028.05
2016-03-11T01:27:12.067Z,1028.13
2016-03-11T01:28:59.384Z,1028.12
2016-03-11T01:29:59.356Z,1028.15
2016-03-11T01:30:59.375Z,1028.14
2016-03-11T01:31:59.408Z,1028.12
2016-03-11T01:32:59.395Z,1028.17
2016-03-11T01:34:18.601Z,1028.15
2016-03-11T01:34:59.416Z,1028.2
2016-03-11T01:36:25.122Z,1028.16
2016-03-11T01:36:59.453Z,1028.14
2016-03-11T01:39:14.740Z,1028.25
2016-03-11T01:40:14.727Z,1028.22
2016-03-11T01:41:14.744Z,1028.22
2016-03-11T01:42:14.763Z,1028.28
2016-03-11T01:43:27.515Z,1028.26
2016-03-11T01:44:14.785Z,1028.24
2016-03-11T01:45:14.803Z,1028.3
2016-03-11T01:46:14.821Z,1028.28
2016-03-11T01:47:14.840Z,1028.28
2016-03-11T01:48:14.842Z,1028.31
2016-03-11T01:49:14.876Z,1028.32
2016-03-11T01:50:27.706Z,1028.29
2016-03-11T01:51:14.897Z,1028.28
2016-03-11T01:52:14.899Z,1028.27
2016-03-11T01:53:14.918Z,1028.28
2016-03-11T01:54:14.936Z,1028.22
2016-03-11T01:55:14.954Z,1028.26
2016-03-11T01:56:14.956Z,1028.28
2016-03-11T01:57:21.242Z,1028.25
2016-03-11T01:58:14.994Z,1028.27
2016-03-11T01:59:15.008Z,1028.3
2016-03-11T02:00:15.000Z,1028.28
2016-03-11T02:01:15.007Z,1028.27
2016-03-11T02:02:27.750Z,1028.27
2016-03-11T02:03:15.023Z,1028.24
2016-03-11T02:04:40.689Z,1028.25
2016-03-11T02:05:24.579Z,1028.28
2016-03-11T02:06:50.264Z,1028.27
2016-03-11T02:07:46.872Z,1028.28
2016-03-11T02:08:46.871Z,1028.31
2016-03-11T02:09:46.904Z,1028.35
2016-03-11T02:10:48.312Z,1028.32
2016-03-11T02:11:46.922Z,1028.33
2016-03-11T02:12:46.939Z,1028.32
2016-03-11T02:13:46.940Z,1028.34
2016-03-11T02:15:06.162Z,1028.31
2016-03-11T02:15:46.976Z,1028.34
2016-03-11T02:16:46.995Z,1028.36
2016-03-11T02:17:46.996Z,1028.35
2016-03-11T02:18:47.014Z,1028.37
2016-03-11T02:19:47.033Z,1028.34
2016-03-11T02:20:47.036Z,1028.34
2016-03-11T02:21:53.319Z,1028.41
2016-03-11T02:22:47.072Z,1028.39
2016-03-11T02:23:47.091Z,1028.38
2016-03-11T02:24:47.110Z,1028.39
2016-03-11T02:26:06.315Z,1028.4
2016-03-11T02:26:47.130Z,1028.36
2016-03-11T02:29:02.307Z,1028.41
2016-03-11T02:30:02.341Z,1028.41
2016-03-11T02:31:02.328Z,1028.41
2016-03-11T02:32:02.346Z,1028.42
2016-03-11T02:33:02.365Z,1028.44
2016-03-11T02:34:02.384Z,1028.43
2016-03-11T02:35:02.401Z,1028.46
2016-03-11T02:36:02.404Z,1028.45
2016-03-11T02:37:02.437Z,1028.44
2016-03-11T02:38:02.441Z,1028.5
2016-03-11T02:39:02.443Z,1028.49
2016-03-11T02:40:02.462Z,1028.52
2016-03-11T02:41:02.481Z,1028.51
2016-03-11T02:42:02.498Z,1028.52
2016-03-11T02:43:15.236Z,1028.54
2016-03-11T02:44:02.520Z,1028.57
2016-03-11T02:45:02.539Z,1028.57
2016-03-11T02:46:02.556Z,1028.53
2016-03-11T02:47:02.559Z,1028.58
2016-03-11T02:48:02.577Z,1028.57
2016-03-11T02:49:15.330Z,1028.56
2016-03-11T02:50:02.614Z,1028.6
2016-03-11T02:51:02.616Z,1028.59
2016-03-11T02:52:05.775Z,1028.58
2016-03-11T02:53:05.777Z,1028.58
2016-03-11T02:54:05.812Z,1028.57
2016-03-11T02:55:05.815Z,1028.55
2016-03-11T02:56:05.833Z,1028.56
2016-03-11T02:57:05.835Z,1028.56
2016-03-11T02:58:05.932Z,1028.54
2016-03-11T02:59:25.076Z,1028.57
2016-03-11T03:00:05.890Z,1028.6
2016-03-11T03:01:05.894Z,1028.62
2016-03-11T03:02:05.912Z,1028.61
2016-03-11T03:03:05.915Z,1028.64
2016-03-11T03:04:05.948Z,1028.61
2016-03-11T03:05:05.966Z,1028.67
2016-03-11T03:06:12.234Z,1028.63
2016-03-11T03:07:05.972Z,1028.65
2016-03-11T03:08:05.990Z,1028.63
2016-03-11T03:09:12.274Z,1028.6
2016-03-11T03:10:06.026Z,1028.63
2016-03-11T03:11:06.045Z,1028.66
2016-03-11T03:12:07.470Z,1028.64
2016-03-11T03:13:06.113Z,1028.64
2016-03-11T03:14:06.084Z,1028.64
2016-03-11T03:15:06.087Z,1028.62
2016-03-11T03:16:06.105Z,1028.63
2016-03-11T03:17:06.124Z,1028.64
2016-03-11T03:18:06.141Z,1028.63
2016-03-11T03:19:06.145Z,1028.67
2016-03-11T03:20:06.164Z,1028.62
2016-03-11T03:21:06.181Z,1028.6
2016-03-11T03:22:12.450Z,1028.63
2016-03-11T03:23:07.608Z,1028.64
2016-03-11T03:24:18.955Z,1028.65
2016-03-11T03:25:06.239Z,1028.64
2016-03-11T03:26:06.258Z,1028.65
2016-03-11T03:27:06.260Z,1028.67
2016-03-11T03:28:06.279Z,1028.65
2016-03-11T03:29:06.313Z,1028.67
2016-03-11T03:30:06.315Z,1028.67
2016-03-11T03:31:06.926Z,1028.69
2016-03-11T03:32:06.321Z,1028.68
2016-03-11T03:33:06.354Z,1028.69
2016-03-11T03:34:06.966Z,1028.61
2016-03-11T03:35:06.375Z,1028.62
2016-03-11T03:36:19.129Z,1028.6
2016-03-11T03:37:06.412Z,1028.6
2016-03-11T03:38:06.415Z,1028.64
2016-03-11T03:39:06.434Z,1028.64
2016-03-11T03:40:06.436Z,1028.64
2016-03-11T03:41:06.454Z,1028.64
2016-03-11T03:42:06.473Z,1028.68
2016-03-11T03:43:06.475Z,1028.69
2016-03-11T03:44:06.493Z,1028.72
2016-03-11T03:45:06.512Z,1028.69
2016-03-11T03:46:06.530Z,1028.73
2016-03-11T03:47:06.548Z,1028.71
2016-03-11T03:48:19.285Z,1028.73
2016-03-11T03:49:06.569Z,1028.72
2016-03-11T03:50:32.259Z,1028.74
2016-03-11T03:51:06.591Z,1028.74
2016-03-11T03:52:06.608Z,1028.74
2016-03-11T03:53:12.892Z,1028.78
2016-03-11T03:54:06.644Z,1028.8
2016-03-11T03:55:25.851Z,1028.77
2016-03-11T03:56:09.854Z,1028.79
2016-03-11T03:57:29.075Z,1028.8
2016-03-11T03:58:09.874Z,1028.81
2016-03-11T03:59:09.893Z,1028.79
2016-03-11T04:00:09.896Z,1028.82
2016-03-11T04:01:09.914Z,1028.86
2016-03-11T04:02:10.589Z,1028.86
2016-03-11T04:03:10.044Z,1028.94
2016-03-11T04:04:09.953Z,1028.86
2016-03-11T04:05:22.707Z,1028.95
2016-03-11T04:06:09.990Z,1028.93
2016-03-11T04:07:29.259Z,1028.94
2016-03-11T04:08:10.011Z,1028.99
2016-03-11T04:09:35.701Z,1028.97
2016-03-11T04:10:10.048Z,1028.92
2016-03-11T04:11:10.065Z,1028.96
2016-03-11T04:12:22.803Z,1028.98
2016-03-11T04:13:10.087Z,1028.95
2016-03-11T04:14:10.105Z,1028.89
2016-03-11T04:15:22.858Z,1028.95
2016-03-11T04:16:10.126Z,1028.88
2016-03-11T04:17:35.816Z,1028.9
2016-03-11T04:18:19.695Z,1028.89
2016-03-11T04:19:19.712Z,1028.91
2016-03-11T04:20:19.965Z,1028.89
2016-03-11T04:21:19.733Z,1028.86
2016-03-11T04:22:19.892Z,1028.91
2016-03-11T04:23:19.770Z,1028.88
2016-03-11T04:24:19.836Z,1028.89
2016-03-11T04:25:32.525Z,1028.89
2016-03-11T04:26:19.825Z,1028.86
2016-03-11T04:27:19.827Z,1028.87
2016-03-11T04:28:19.893Z,1028.83
2016-03-11T04:30:19.867Z,1028.87
2016-03-11T04:31:19.869Z,1028.87
2016-03-11T04:32:19.888Z,1028.91
2016-03-11T04:33:29.516Z,1028.94
2016-03-11T04:34:29.535Z,1028.93
2016-03-11T04:35:29.552Z,1028.92
2016-03-11T04:37:29.573Z,1028.96
2016-03-11T04:38:29.592Z,1028.94
2016-03-11T04:39:29.610Z,1028.93
2016-03-11T04:40:29.612Z,1028.96
2016-03-11T04:41:29.631Z,1028.97
2016-03-11T04:42:42.383Z,1028.97
2016-03-11T04:43:48.855Z,1028.97
2016-03-11T04:44:29.670Z,1029
2016-03-11T04:45:29.689Z,1029
2016-03-11T04:46:29.770Z,1029.02
2016-03-11T04:47:42.445Z,1029.04
2016-03-11T04:48:29.712Z,1029.02
2016-03-11T04:49:55.406Z,1029.04
2016-03-11T04:50:29.750Z,1029.04
2016-03-11T04:51:29.767Z,1029.08
2016-03-11T04:52:52.050Z,1029.06
2016-03-11T04:53:39.367Z,1029.07
2016-03-11T04:54:39.385Z,1029.06
2016-03-11T04:55:39.356Z,1029.04
2016-03-11T04:56:40.781Z,1029.06
2016-03-11T04:57:39.377Z,1029.08
2016-03-11T04:58:58.602Z,1029.06
2016-03-11T04:59:39.399Z,1029.04
2016-03-11T05:00:39.432Z,1029.08
2016-03-11T05:01:39.449Z,1029.08
2016-03-11T05:02:40.860Z,1029.08
2016-03-11T05:03:40.877Z,1029.06
2016-03-11T05:04:42.505Z,1029.09
2016-03-11T05:05:52.226Z,1029.09
2016-03-11T05:06:43.220Z,1029.1
2016-03-11T05:07:39.754Z,1029.11
2016-03-11T05:08:39.522Z,1029.11
2016-03-11T05:09:39.541Z,1029.14
2016-03-11T05:10:39.590Z,1029.17
2016-03-11T05:11:39.561Z,1029.16
2016-03-11T05:12:39.563Z,1029.17
2016-03-11T05:13:39.582Z,1029.16
2016-03-11T05:14:39.600Z,1029.16
2016-03-11T05:15:40.213Z,1029.15
2016-03-11T05:16:39.856Z,1029.15
2016-03-11T05:17:39.640Z,1029.16
2016-03-11T05:18:40.252Z,1029.17
2016-03-11T05:19:39.739Z,1029.17
2016-03-11T05:20:39.679Z,1029.18
2016-03-11T05:21:39.728Z,1029.2
2016-03-11T05:22:39.700Z,1029.21
2016-03-11T05:23:39.765Z,1029.23
2016-03-11T05:24:39.721Z,1029.27
2016-03-11T05:25:40.036Z,1029.26
2016-03-11T05:26:59.011Z,1029.28
2016-03-11T05:27:42.979Z,1029.32
2016-03-11T05:28:42.998Z,1029.36
2016-03-11T05:29:43.172Z,1029.34
2016-03-11T05:30:43.003Z,1029.36
2016-03-11T05:31:43.224Z,1029.39
2016-03-11T05:32:42.993Z,1029.4
2016-03-11T05:33:43.011Z,1029.43
2016-03-11T05:34:43.030Z,1029.44
2016-03-11T05:35:43.047Z,1029.46
2016-03-11T05:36:49.316Z,1029.45
2016-03-11T05:37:43.069Z,1029.47
2016-03-11T05:39:02.277Z,1029.47
2016-03-11T05:39:43.090Z,1029.46
2016-03-11T05:40:43.092Z,1029.46
2016-03-11T05:41:43.111Z,1029.51
2016-03-11T05:42:43.129Z,1029.51
2016-03-11T05:43:43.132Z,1029.55
2016-03-11T05:45:02.356Z,1029.53
2016-03-11T05:45:43.168Z,1029.53
2016-03-11T05:46:43.187Z,1029.58
2016-03-11T05:47:43.173Z,1029.55
2016-03-11T05:48:43.193Z,1029.62
2016-03-11T05:49:43.195Z,1029.6
2016-03-11T05:50:43.213Z,1029.66
2016-03-11T05:51:43.231Z,1029.63
2016-03-11T05:53:08.924Z,1029.65
2016-03-11T05:53:43.253Z,1029.65
2016-03-11T05:54:43.270Z,1029.66
2016-03-11T05:55:58.900Z,1029.66
2016-03-11T05:56:58.920Z,1029.67
2016-03-11T05:58:11.672Z,1029.69
2016-03-11T05:58:58.940Z,1029.69
2016-03-11T05:59:58.958Z,1029.71
2016-03-11T06:01:02.070Z,1029.7
2016-03-11T06:02:02.073Z,1029.74
2016-03-11T06:03:02.092Z,1029.81
2016-03-11T06:04:02.094Z,1029.78
2016-03-11T06:05:02.097Z,1029.78
2016-03-11T06:06:02.116Z,1029.79
2016-03-11T06:07:02.134Z,1029.76
2016-03-11T06:08:02.152Z,1029.8
2016-03-11T06:09:02.155Z,1029.81
2016-03-11T06:10:02.173Z,1029.79
2016-03-11T06:11:02.176Z,1029.82
2016-03-11T06:12:21.397Z,1029.84
2016-03-11T06:13:05.290Z,1029.82
2016-03-11T06:14:30.966Z,1029.81
2016-03-11T06:15:09.202Z,1029.85
2016-03-11T06:16:09.221Z,1029.89
2016-03-11T06:17:09.285Z,1029.87
2016-03-11T06:18:09.460Z,1029.86
2016-03-11T06:19:09.259Z,1029.83
2016-03-11T06:20:21.996Z,1029.86
2016-03-11T06:21:09.374Z,1029.87
2016-03-11T06:22:09.299Z,1029.88
2016-03-11T06:23:09.505Z,1029.89
2016-03-11T06:24:09.304Z,1029.86
2016-03-11T06:25:09.323Z,1029.9
2016-03-11T06:26:28.544Z,1029.9
2016-03-11T06:27:15.484Z,1029.88
2016-03-11T06:28:12.472Z,1029.94
2016-03-11T06:29:12.489Z,1029.95
2016-03-11T06:30:12.492Z,1029.95
2016-03-11T06:31:12.495Z,1029.96
2016-03-11T06:32:12.576Z,1029.96
2016-03-11T06:33:25.266Z,1029.98
2016-03-11T06:34:12.550Z,1030.02
2016-03-11T06:35:12.552Z,1030.02
2016-03-11T06:36:12.555Z,1030.03
2016-03-11T06:37:12.574Z,1030.05
2016-03-11T06:38:12.827Z,1030.07
2016-03-11T06:39:12.844Z,1030.03
2016-03-11T06:40:12.660Z,1030
2016-03-11T06:41:12.632Z,1030
2016-03-11T06:42:12.634Z,1029.99
2016-03-11T06:43:13.105Z,1030
2016-03-11T06:44:25.435Z,1030
2016-03-11T06:45:25.423Z,1030.04
2016-03-11T06:46:31.910Z,1030.03
2016-03-11T06:47:12.710Z,1030.05
2016-03-11T06:48:12.728Z,1030.06
2016-03-11T06:49:12.746Z,1030.09
2016-03-11T06:50:12.748Z,1030.11
2016-03-11T06:51:12.783Z,1030.08
2016-03-11T06:52:12.786Z,1030.09
2016-03-11T06:53:12.804Z,1030.09
2016-03-11T06:54:12.823Z,1030.1
2016-03-11T06:55:12.857Z,1030.09
2016-03-11T06:56:13.031Z,1030.13
2016-03-11T06:57:25.596Z,1030.14
2016-03-11T06:58:12.881Z,1030.13
2016-03-11T06:59:25.665Z,1030.17
2016-03-11T07:00:13.542Z,1030.2
2016-03-11T07:01:32.139Z,1030.21
2016-03-11T07:02:13.547Z,1030.17
2016-03-11T07:04:22.818Z,1030.22
2016-03-11T07:05:22.602Z,1030.25
2016-03-11T07:06:38.058Z,1030.31
2016-03-11T07:07:38.077Z,1030.31
2016-03-11T07:08:38.704Z,1030.32
2016-03-11T07:09:38.347Z,1030.29
2016-03-11T07:10:38.350Z,1030.34
2016-03-11T07:11:38.743Z,1030.31
2016-03-11T07:12:38.152Z,1030.32
2016-03-11T07:13:39.593Z,1030.36
2016-03-11T07:14:38.236Z,1030.41
2016-03-11T07:15:50.973Z,1030.44
2016-03-11T07:16:38.226Z,1030.44
2016-03-11T07:17:57.497Z,1030.46
2016-03-11T07:18:41.482Z,1030.46
2016-03-11T07:19:41.499Z,1030.48
2016-03-11T07:20:44.643Z,1030.49
2016-03-11T07:21:44.660Z,1030.48
2016-03-11T07:22:44.726Z,1030.47
2016-03-11T07:23:44.713Z,1030.46
2016-03-11T07:24:44.935Z,1030.52
2016-03-11T07:26:59.911Z,1030.55
2016-03-11T07:27:59.945Z,1030.53
2016-03-11T07:28:59.948Z,1030.53
2016-03-11T07:30:12.701Z,1030.58
2016-03-11T07:30:59.984Z,1030.55
2016-03-11T07:32:12.737Z,1030.52
2016-03-11T07:33:00.022Z,1030.56
2016-03-11T07:34:00.039Z,1030.56
2016-03-11T07:35:12.792Z,1030.58
2016-03-11T07:36:00.060Z,1030.58
2016-03-11T07:37:25.750Z,1030.57
2016-03-11T07:38:00.706Z,1030.58
2016-03-11T07:40:41.227Z,1030.59
2016-03-11T07:41:41.246Z,1030.62
2016-03-11T07:42:51.029Z,1030.6
2016-03-11T07:43:51.049Z,1030.62
2016-03-11T07:45:06.444Z,1030.61
2016-03-11T07:46:06.463Z,1030.63
2016-03-11T07:47:12.746Z,1030.61
2016-03-11T07:48:06.687Z,1030.62
2016-03-11T07:49:06.517Z,1030.58
2016-03-11T07:50:19.255Z,1030.6
2016-03-11T07:51:06.538Z,1030.62
2016-03-11T07:52:25.760Z,1030.6
2016-03-11T07:53:32.246Z,1030.64
2016-03-11T07:54:41.812Z,1030.62
2016-03-11T07:55:41.830Z,1030.61
2016-03-11T07:56:54.570Z,1030.64
2016-03-11T07:57:41.851Z,1030.66
2016-03-11T07:59:01.075Z,1030.62
2016-03-11T07:59:44.934Z,1030.62
2016-03-11T08:01:10.643Z,1030.67
2016-03-11T08:01:54.770Z,1030.64
2016-03-11T08:03:20.462Z,1030.65
2016-03-11T08:03:54.792Z,1030.64
2016-03-11T08:04:54.826Z,1030.69
2016-03-11T08:05:55.063Z,1030.7
2016-03-11T08:06:54.831Z,1030.7
2016-03-11T08:08:20.537Z,1030.71
2016-03-11T08:08:58.822Z,1030.65
2016-03-11T08:11:14.124Z,1030.69
2016-03-11T08:12:14.080Z,1030.75
2016-03-11T08:13:26.848Z,1030.76
2016-03-11T08:14:14.350Z,1030.79
2016-03-11T08:15:33.338Z,1030.77
2016-03-11T08:16:14.747Z,1030.8
2016-03-11T08:17:39.827Z,1030.83
2016-03-11T08:18:55.067Z,1030.86
2016-03-11T08:19:55.085Z,1030.83
2016-03-11T08:20:55.088Z,1030.83
2016-03-11T08:21:55.107Z,1030.86
2016-03-11T08:22:55.140Z,1030.83
2016-03-11T08:23:55.768Z,1030.86
2016-03-11T08:24:55.161Z,1030.84
2016-03-11T08:27:11.823Z,1030.9
2016-03-11T08:28:11.778Z,1030.9
2016-03-11T08:29:11.843Z,1030.9
2016-03-11T08:30:24.550Z,1030.89
2016-03-11T08:31:11.834Z,1030.9
2016-03-11T08:32:37.523Z,1030.95
2016-03-11T08:33:11.870Z,1030.95
2016-03-11T08:34:11.889Z,1030.95
2016-03-11T08:35:27.078Z,1030.97
2016-03-11T08:36:27.081Z,1030.96
2016-03-11T08:37:27.099Z,1031.01
2016-03-11T08:38:39.853Z,1031.02
2016-03-11T08:39:39.917Z,1031.06
2016-03-11T08:40:27.155Z,1031.04
2016-03-11T08:41:52.845Z,1031.01
2016-03-11T08:43:01.944Z,1031.03
2016-03-11T08:44:01.962Z,1030.99
2016-03-11T08:45:17.449Z,1031.04
2016-03-11T08:46:23.733Z,1030.97
2016-03-11T08:47:17.485Z,1031.03
2016-03-11T08:48:17.504Z,1031
2016-03-11T08:49:17.522Z,1030.98
2016-03-11T08:50:17.541Z,1030.98
2016-03-11T08:51:17.763Z,1031
2016-03-11T08:52:23.843Z,1031.01
2016-03-11T08:53:17.596Z,1031.02
2016-03-11T08:54:30.395Z,1031.04
2016-03-11T08:55:36.835Z,1031.05
2016-03-11T08:56:36.854Z,1031.06
2016-03-11T08:57:43.340Z,1031.02
2016-03-11T08:58:52.875Z,1031.08
2016-03-11T09:00:12.115Z,1031.09
2016-03-11T09:00:56.039Z,1031.06
2016-03-11T09:01:56.072Z,1031.08
2016-03-11T09:02:56.076Z,1031.03
2016-03-11T09:04:21.766Z,1031.03
2016-03-11T09:05:05.658Z,1031.11
2016-03-11T09:06:05.786Z,1031.06
2016-03-11T09:07:05.680Z,1031.04
2016-03-11T09:08:05.761Z,1031.04
2016-03-11T09:09:12.279Z,1031.06
2016-03-11T09:10:05.750Z,1031.01
2016-03-11T09:11:18.488Z,1031.06
2016-03-11T09:12:05.772Z,1031.1
2016-03-11T09:13:05.805Z,1031.11
2016-03-11T09:14:05.808Z,1031.14
2016-03-11T09:15:05.827Z,1031.15
2016-03-11T09:16:05.845Z,1031.17
2016-03-11T09:17:05.863Z,1031.2
2016-03-11T09:18:05.882Z,1031.2
2016-03-11T09:19:05.946Z,1031.17
2016-03-11T09:20:05.918Z,1031.18
2016-03-11T09:21:05.937Z,1031.19
2016-03-11T09:22:31.626Z,1031.15
2016-03-11T09:23:15.567Z,1031.17
2016-03-11T09:24:15.554Z,1031.14
2016-03-11T09:25:15.635Z,1031.16
2016-03-11T09:26:15.606Z,1031.15
2016-03-11T09:27:15.609Z,1031.16
2016-03-11T09:28:15.627Z,1031.18
2016-03-11T09:29:28.380Z,1031.22
2016-03-11T09:30:41.336Z,1031.19
2016-03-11T09:31:25.745Z,1031.15
2016-03-11T09:32:51.373Z,1031.18
2016-03-11T09:33:35.250Z,1031.25
2016-03-11T09:34:35.267Z,1031.18
2016-03-11T09:35:35.896Z,1031.24
2016-03-11T09:36:48.070Z,1031.23
2016-03-11T09:37:35.323Z,1031.25
2016-03-11T09:39:01.017Z,1031.23
2016-03-11T09:39:45.157Z,1031.24
2016-03-11T09:40:45.128Z,1031.28
2016-03-11T09:41:45.131Z,1031.31
2016-03-11T09:43:04.371Z,1031.27
2016-03-11T09:43:45.214Z,1031.28
2016-03-11T09:44:45.186Z,1031.29
2016-03-11T09:45:54.829Z,1031.29
2016-03-11T09:46:55.035Z,1031.35
2016-03-11T09:48:01.509Z,1031.34
2016-03-11T09:48:54.837Z,1031.28
2016-03-11T09:50:14.076Z,1031.37
2016-03-11T09:51:01.002Z,1031.34
2016-03-11T09:51:58.099Z,1031.31
2016-03-11T09:53:01.007Z,1031.35
2016-03-11T09:53:58.057Z,1031.36
2016-03-11T09:55:10.747Z,1031.38
2016-03-11T09:55:58.265Z,1031.37
2016-03-11T09:57:17.501Z,1031.37
2016-03-11T09:57:58.068Z,1031.35
2016-03-11T09:58:58.070Z,1031.37
2016-03-11T10:00:07.760Z,1031.36
2016-03-11T10:01:07.637Z,1031.36
2016-03-11T10:02:24.453Z,1031.37
2016-03-11T10:03:11.737Z,1031.38
2016-03-11T10:04:11.723Z,1031.39
2016-03-11T10:05:11.758Z,1031.39
2016-03-11T10:06:11.948Z,1031.39
2016-03-11T10:07:11.816Z,1031.34
2016-03-11T10:08:11.803Z,1031.36
2016-03-11T10:09:11.806Z,1031.36
2016-03-11T10:10:24.559Z,1031.36
2016-03-11T10:11:12.076Z,1031.36
2016-03-11T10:12:11.845Z,1031.31
2016-03-11T10:13:11.863Z,1031.34
2016-03-11T10:14:11.882Z,1031.37
2016-03-11T10:15:12.041Z,1031.37
2016-03-11T10:16:24.652Z,1031.34
2016-03-11T10:17:31.140Z,1031.38
2016-03-11T10:18:15.565Z,1031.35
2016-03-11T10:19:15.630Z,1031.37
2016-03-11T10:20:15.600Z,1031.38
2016-03-11T10:21:15.823Z,1031.37
2016-03-11T10:22:15.653Z,1031.35
2016-03-11T10:23:15.671Z,1031.33
2016-03-11T10:24:15.893Z,1031.3
2016-03-11T10:25:15.708Z,1031.3
2016-03-11T10:26:15.696Z,1031.3
2016-03-11T10:27:15.713Z,1031.35
2016-03-11T10:28:15.747Z,1031.3
2016-03-11T10:29:25.406Z,1031.35
2016-03-11T10:30:25.424Z,1031.35
2016-03-11T10:31:38.162Z,1031.33
2016-03-11T10:32:25.461Z,1031.37
2016-03-11T10:33:51.136Z,1031.33
2016-03-11T10:34:48.560Z,1031.35
2016-03-11T10:35:48.579Z,1031.32
2016-03-11T10:36:48.550Z,1031.32
2016-03-11T10:37:49.178Z,1031.29
2016-03-11T10:38:48.587Z,1031.32
2016-03-11T10:39:48.605Z,1031.34
2016-03-11T10:40:48.624Z,1031.34
2016-03-11T10:41:48.642Z,1031.39
2016-03-11T10:42:48.644Z,1031.34
2016-03-11T10:43:48.678Z,1031.33
2016-03-11T10:45:07.887Z,1031.31
2016-03-11T10:46:01.436Z,1031.3
2016-03-11T10:46:48.717Z,1031.31
2016-03-11T10:47:48.737Z,1031.29
2016-03-11T10:48:48.786Z,1031.3
2016-03-11T10:49:48.772Z,1031.35
2016-03-11T10:50:49.619Z,1031.34
2016-03-11T10:51:48.809Z,1031.34
2016-03-11T10:52:48.859Z,1031.31
2016-03-11T10:53:49.080Z,1031.38
2016-03-11T10:54:48.849Z,1031.32
2016-03-11T10:55:49.477Z,1031.3
2016-03-11T10:58:04.312Z,1031.36
2016-03-11T10:59:29.988Z,1031.42
2016-03-11T11:00:14.099Z,1031.4
2016-03-11T11:01:23.727Z,1031.4
2016-03-11T11:02:23.745Z,1031.38
2016-03-11T11:03:23.779Z,1031.43
2016-03-11T11:04:23.798Z,1031.39
2016-03-11T11:05:24.027Z,1031.38
2016-03-11T11:06:49.484Z,1031.37
2016-03-11T11:08:30.522Z,1031.37
2016-03-11T11:09:55.994Z,1031.39
2016-03-11T11:11:05.718Z,1031.37
2016-03-11T11:13:08.713Z,1031.36
2016-03-11T11:14:08.726Z,1031.37
2016-03-11T11:16:27.288Z,1031.37
2016-03-11T11:17:27.304Z,1031.35
2016-03-11T11:18:42.789Z,1031.36
2016-03-11T11:19:42.774Z,1031.3
2016-03-11T11:20:43.385Z,1031.36
2016-03-11T11:21:55.527Z,1031.36
2016-03-11T11:22:42.811Z,1031.33
2016-03-11T11:23:42.828Z,1031.35
2016-03-11T11:24:46.393Z,1031.35
2016-03-11T11:26:11.851Z,1031.33
2016-03-11T11:26:55.742Z,1031.36
2016-03-11T11:27:55.758Z,1031.33
2016-03-11T11:28:55.776Z,1031.33
2016-03-11T11:29:55.998Z,1031.35
2016-03-11T11:31:08.550Z,1031.37
2016-03-11T11:32:02.099Z,1031.3
2016-03-11T11:33:15.054Z,1031.35
2016-03-11T11:33:55.867Z,1031.35
2016-03-11T11:36:08.641Z,1031.35
2016-03-11T11:36:55.922Z,1031.34
2016-03-11T11:38:15.162Z,1031.33
2016-03-11T11:38:55.959Z,1031.38
2016-03-11T11:39:55.993Z,1031.34
2016-03-11T11:41:05.780Z,1031.34
2016-03-11T11:42:05.579Z,1031.3
2016-03-11T11:44:20.803Z,1031.14
2016-03-11T11:45:20.822Z,1031.28
2016-03-11T11:46:20.839Z,1031.25
2016-03-11T11:47:27.124Z,1031.28
2016-03-11T11:48:20.861Z,1031.29
2016-03-11T11:49:40.097Z,1031.27
2016-03-11T11:50:30.272Z,1031.23
2016-03-11T11:51:24.025Z,1031.23
2016-03-11T11:52:27.528Z,1031.2
2016-03-11T11:53:53.468Z,1031.13
2016-03-11T11:54:31.736Z,1031.24
2016-03-11T11:55:57.443Z,1031.15
2016-03-11T11:56:35.774Z,1031.16
2016-03-11T11:58:45.419Z,1031.18
2016-03-11T11:59:45.438Z,1031.16
2016-03-11T12:00:45.456Z,1031.18
2016-03-11T12:01:45.505Z,1031.19
2016-03-11T12:03:04.933Z,1031.2
2016-03-11T12:03:46.918Z,1031.17
2016-03-11T12:04:45.529Z,1031.16
2016-03-11T12:05:58.298Z,1031.13
2016-03-11T12:06:45.550Z,1031.17
2016-03-11T12:07:58.303Z,1031.1
2016-03-11T12:08:58.337Z,1031.07
2016-03-11T12:09:45.605Z,1031.13
2016-03-11T12:11:04.861Z,1031.1
2016-03-11T12:11:45.642Z,1031.07
2016-03-11T12:13:11.335Z,1031.07
2016-03-11T12:13:55.413Z,1031.05
2016-03-11T12:14:55.431Z,1031.12
2016-03-11T12:16:04.983Z,1031.04
2016-03-11T12:17:14.767Z,1031.05
2016-03-11T12:18:40.255Z,1031.08
2016-03-11T12:19:24.475Z,1031.07
2016-03-11T12:20:24.494Z,1031.05
2016-03-11T12:21:25.934Z,1031.01
2016-03-11T12:22:43.797Z,1031
2016-03-11T12:23:24.564Z,1031.06
2016-03-11T12:24:24.567Z,1031.01
2016-03-11T12:25:24.617Z,1031.06
2016-03-11T12:26:50.291Z,1031
2016-03-11T12:27:59.968Z,1031.05
2016-03-11T12:28:59.971Z,1031
2016-03-11T12:30:00.037Z,1031.01
2016-03-11T12:31:00.024Z,1030.98
2016-03-11T12:32:12.776Z,1031.03
2016-03-11T12:33:00.045Z,1031.09
2016-03-11T12:34:19.266Z,1031.09
2016-03-11T12:35:00.082Z,1031.07
2016-03-11T12:36:00.099Z,1030.99
2016-03-11T12:37:00.134Z,1031.06
2016-03-11T12:39:15.357Z,1030.98
2016-03-11T12:40:15.626Z,1031.04
2016-03-11T12:41:15.394Z,1031.03